sensor_id;sensor_type;location;lat;lon;timestamp;temperature;humidity
48734;DHT22;34530;52.084;5.146;2023-03-12T00:00:28;13.20;59.00
48734;DHT22;34530;52.084;5.146;2023-03-12T00:02:55;13.10;59.10
48734;DHT22;34530;52.084;5.146;2023-03-12T00:05:20;13.00;59.20
48734;DHT22;34530;52.084;5.146;2023-03-12T00:07:47;13.00;59.20
48734;DHT22;34530;52.084;5.146;2023-03-12T00:10:13;13.00;59.30
48734;DHT22;34530;52.084;5.146;2023-03-12T00:12:39;12.90;59.30
48734;DHT22;34530;52.084;5.146;2023-03-12T00:15:05;12.90;59.30
48734;DHT22;34530;52.084;5.146;2023-03-12T00:17:31;13.10;59.10
48734;DHT22;34530;52.084;5.146;2023-03-12T00:19:57;13.00;59.10
48734;DHT22;34530;52.084;5.146;2023-03-12T00:22:23;13.00;59.20
48734;DHT22;34530;52.084;5.146;2023-03-12T00:24:54;12.90;59.30
48734;DHT22;34530;52.084;5.146;2023-03-12T00:27:21;12.90;59.30
48734;DHT22;34530;52.084;5.146;2023-03-12T00:29:47;12.90;59.40
48734;DHT22;34530;52.084;5.146;2023-03-12T00:32:12;12.90;59.40
48734;DHT22;34530;52.084;5.146;2023-03-12T00:34:38;12.80;59.40
48734;DHT22;34530;52.084;5.146;2023-03-12T00:37:04;12.90;59.40
48734;DHT22;34530;52.084;5.146;2023-03-12T00:39:29;12.80;59.40
48734;DHT22;34530;52.084;5.146;2023-03-12T00:41:56;12.80;59.50
48734;DHT22;34530;52.084;5.146;2023-03-12T00:44:21;12.80;59.50
48734;DHT22;34530;52.084;5.146;2023-03-12T00:46:47;12.80;59.50
48734;DHT22;34530;52.084;5.146;2023-03-12T00:49:12;12.80;60.20
48734;DHT22;34530;52.084;5.146;2023-03-12T00:51:38;12.80;59.60
48734;DHT22;34530;52.084;5.146;2023-03-12T00:54:04;12.70;59.60
48734;DHT22;34530;52.084;5.146;2023-03-12T00:56:30;12.70;59.60
48734;DHT22;34530;52.084;5.146;2023-03-12T00:58:55;13.10;59.00
48734;DHT22;34530;52.084;5.146;2023-03-12T01:01:21;13.00;59.20
48734;DHT22;34530;52.084;5.146;2023-03-12T01:03:48;12.90;59.30
48734;DHT22;34530;52.084;5.146;2023-03-12T01:06:14;12.80;59.40
48734;DHT22;34530;52.084;5.146;2023-03-12T01:08:39;12.80;59.50
48734;DHT22;34530;52.084;5.146;2023-03-12T01:11:05;12.80;59.50
48734;DHT22;34530;52.084;5.146;2023-03-12T01:13:30;12.80;59.50
48734;DHT22;34530;52.084;5.146;2023-03-12T01:15:56;12.70;59.50
48734;DHT22;34530;52.084;5.146;2023-03-12T01:18:22;12.70;60.10
48734;DHT22;34530;52.084;5.146;2023-03-12T01:20:47;12.70;59.50
48734;DHT22;34530;52.084;5.146;2023-03-12T01:23:13;12.70;59.60
48734;DHT22;34530;52.084;5.146;2023-03-12T01:25:40;12.70;59.60
48734;DHT22;34530;52.084;5.146;2023-03-12T01:28:05;12.70;59.50
48734;DHT22;34530;52.084;5.146;2023-03-12T01:30:31;12.70;59.50
48734;DHT22;34530;52.084;5.146;2023-03-12T01:32:57;12.70;59.60
48734;DHT22;34530;52.084;5.146;2023-03-12T01:35:23;12.70;59.60
48734;DHT22;34530;52.084;5.146;2023-03-12T01:37:49;12.60;59.60
48734;DHT22;34530;52.084;5.146;2023-03-12T01:40:19;12.70;59.70
48734;DHT22;34530;52.084;5.146;2023-03-12T01:42:56;12.60;59.70
48734;DHT22;34530;52.084;5.146;2023-03-12T01:48:27;12.60;59.70
48734;DHT22;34530;52.084;5.146;2023-03-12T01:50:53;12.60;59.80
48734;DHT22;34530;52.084;5.146;2023-03-12T01:53:19;12.60;59.80
48734;DHT22;34530;52.084;5.146;2023-03-12T01:55:45;12.60;59.80
48734;DHT22;34530;52.084;5.146;2023-03-12T01:58:10;12.60;59.80
48734;DHT22;34530;52.084;5.146;2023-03-12T02:00:36;12.50;59.80
48734;DHT22;34530;52.084;5.146;2023-03-12T02:03:06;12.60;59.90
48734;DHT22;34530;52.084;5.146;2023-03-12T02:07:01;12.60;59.90
48734;DHT22;34530;52.084;5.146;2023-03-12T02:08:53;12.50;59.80
48734;DHT22;34530;52.084;5.146;2023-03-12T02:11:19;12.50;59.90
48734;DHT22;34530;52.084;5.146;2023-03-12T02:13:44;12.60;59.90
48734;DHT22;34530;52.084;5.146;2023-03-12T02:16:10;12.50;59.90
48734;DHT22;34530;52.084;5.146;2023-03-12T02:18:35;12.70;59.70
48734;DHT22;34530;52.084;5.146;2023-03-12T02:21:18;12.60;59.70
48734;DHT22;34530;52.084;5.146;2023-03-12T02:26:16;12.60;59.90
48734;DHT22;34530;52.084;5.146;2023-03-12T02:28:43;12.50;59.80
48734;DHT22;34530;52.084;5.146;2023-03-12T02:31:17;12.50;59.80
48734;DHT22;34530;52.084;5.146;2023-03-12T02:33:44;12.50;59.80
48734;DHT22;34530;52.084;5.146;2023-03-12T02:36:10;12.50;59.90
48734;DHT22;34530;52.084;5.146;2023-03-12T02:43:38;12.50;59.90
48734;DHT22;34530;52.084;5.146;2023-03-12T02:46:04;12.50;60.00
48734;DHT22;34530;52.084;5.146;2023-03-12T02:48:30;12.50;60.00
48734;DHT22;34530;52.084;5.146;2023-03-12T02:50:56;12.50;60.00
48734;DHT22;34530;52.084;5.146;2023-03-12T02:53:21;12.40;60.00
48734;DHT22;34530;52.084;5.146;2023-03-12T02:55:47;12.40;60.00
48734;DHT22;34530;52.084;5.146;2023-03-12T02:58:13;12.50;60.00
48734;DHT22;34530;52.084;5.146;2023-03-12T03:00:38;12.50;60.00
48734;DHT22;34530;52.084;5.146;2023-03-12T03:03:04;12.50;60.00
48734;DHT22;34530;52.084;5.146;2023-03-12T03:05:29;12.40;60.00
48734;DHT22;34530;52.084;5.146;2023-03-12T03:07:55;12.40;60.00
48734;DHT22;34530;52.084;5.146;2023-03-12T03:10:21;12.50;60.10
48734;DHT22;34530;52.084;5.146;2023-03-12T03:12:46;12.40;60.00
48734;DHT22;34530;52.084;5.146;2023-03-12T03:15:12;12.40;60.00
48734;DHT22;34530;52.084;5.146;2023-03-12T03:17:37;12.40;60.00
48734;DHT22;34530;52.084;5.146;2023-03-12T03:20:04;12.40;60.00
48734;DHT22;34530;52.084;5.146;2023-03-12T03:22:33;12.40;60.00
48734;DHT22;34530;52.084;5.146;2023-03-12T03:24:59;12.40;60.00
48734;DHT22;34530;52.084;5.146;2023-03-12T03:27:25;12.40;60.00
48734;DHT22;34530;52.084;5.146;2023-03-12T03:29:50;12.40;60.10
48734;DHT22;34530;52.084;5.146;2023-03-12T03:32:16;12.40;60.10
48734;DHT22;34530;52.084;5.146;2023-03-12T03:34:41;12.30;60.10
48734;DHT22;34530;52.084;5.146;2023-03-12T03:37:07;12.30;60.10
48734;DHT22;34530;52.084;5.146;2023-03-12T03:39:33;12.30;60.10
48734;DHT22;34530;52.084;5.146;2023-03-12T03:41:59;12.30;60.10
48734;DHT22;34530;52.084;5.146;2023-03-12T03:44:24;12.30;60.20
48734;DHT22;34530;52.084;5.146;2023-03-12T03:46:50;12.30;60.10
48734;DHT22;34530;52.084;5.146;2023-03-12T03:49:17;12.30;60.10
48734;DHT22;34530;52.084;5.146;2023-03-12T03:51:43;12.30;60.10
48734;DHT22;34530;52.084;5.146;2023-03-12T03:54:09;12.30;60.20
48734;DHT22;34530;52.084;5.146;2023-03-12T03:56:35;12.30;60.20
48734;DHT22;34530;52.084;5.146;2023-03-12T03:59:01;12.30;60.20
48734;DHT22;34530;52.084;5.146;2023-03-12T04:01:28;12.30;60.20
48734;DHT22;34530;52.084;5.146;2023-03-12T04:03:55;12.30;60.30
48734;DHT22;34530;52.084;5.146;2023-03-12T04:06:21;12.30;60.40
48734;DHT22;34530;52.084;5.146;2023-03-12T04:08:47;12.30;60.30
48734;DHT22;34530;52.084;5.146;2023-03-12T04:11:18;12.30;60.40
48734;DHT22;34530;52.084;5.146;2023-03-12T04:13:44;12.30;60.30
48734;DHT22;34530;52.084;5.146;2023-03-12T04:16:11;12.30;60.40
48734;DHT22;34530;52.084;5.146;2023-03-12T04:18:37;12.20;60.30
48734;DHT22;34530;52.084;5.146;2023-03-12T04:21:04;12.20;60.30
48734;DHT22;34530;52.084;5.146;2023-03-12T04:23:30;12.20;60.30
48734;DHT22;34530;52.084;5.146;2023-03-12T04:25:56;12.30;60.30
48734;DHT22;34530;52.084;5.146;2023-03-12T04:28:21;12.20;60.30
48734;DHT22;34530;52.084;5.146;2023-03-12T04:31:01;12.30;60.30
48734;DHT22;34530;52.084;5.146;2023-03-12T04:33:32;12.20;60.30
48734;DHT22;34530;52.084;5.146;2023-03-12T04:35:58;12.20;60.30
48734;DHT22;34530;52.084;5.146;2023-03-12T04:38:25;12.30;60.30
48734;DHT22;34530;52.084;5.146;2023-03-12T04:41:19;12.20;60.30
48734;DHT22;34530;52.084;5.146;2023-03-12T04:43:44;12.20;60.30
48734;DHT22;34530;52.084;5.146;2023-03-12T04:46:10;12.20;60.30
48734;DHT22;34530;52.084;5.146;2023-03-12T04:48:35;12.20;60.30
48734;DHT22;34530;52.084;5.146;2023-03-12T04:51:03;12.20;60.40
48734;DHT22;34530;52.084;5.146;2023-03-12T04:53:28;12.20;60.30
48734;DHT22;34530;52.084;5.146;2023-03-12T04:55:54;12.20;60.40
48734;DHT22;34530;52.084;5.146;2023-03-12T04:58:21;12.20;60.40
48734;DHT22;34530;52.084;5.146;2023-03-12T05:00:47;12.20;60.40
48734;DHT22;34530;52.084;5.146;2023-03-12T05:03:14;12.20;60.40
48734;DHT22;34530;52.084;5.146;2023-03-12T05:05:39;12.20;60.40
48734;DHT22;34530;52.084;5.146;2023-03-12T05:08:05;12.20;60.50
48734;DHT22;34530;52.084;5.146;2023-03-12T05:10:31;12.20;60.50
48734;DHT22;34530;52.084;5.146;2023-03-12T05:12:57;12.20;60.50
48734;DHT22;34530;52.084;5.146;2023-03-12T05:15:22;12.10;60.40
48734;DHT22;34530;52.084;5.146;2023-03-12T05:17:48;12.10;60.40
48734;DHT22;34530;52.084;5.146;2023-03-12T05:20:15;12.50;59.80
48734;DHT22;34530;52.084;5.146;2023-03-12T05:22:42;12.40;60.00
48734;DHT22;34530;52.084;5.146;2023-03-12T05:25:08;12.30;60.10
48734;DHT22;34530;52.084;5.146;2023-03-12T05:27:34;12.20;60.10
48734;DHT22;34530;52.084;5.146;2023-03-12T05:29:59;12.20;60.30
48734;DHT22;34530;52.084;5.146;2023-03-12T05:32:25;12.20;60.30
48734;DHT22;34530;52.084;5.146;2023-03-12T05:34:51;12.20;60.30
48734;DHT22;34530;52.084;5.146;2023-03-12T05:37:16;12.20;60.30
48734;DHT22;34530;52.084;5.146;2023-03-12T05:39:42;12.20;60.30
48734;DHT22;34530;52.084;5.146;2023-03-12T05:42:12;12.20;60.40
48734;DHT22;34530;52.084;5.146;2023-03-12T05:44:38;12.10;60.30
48734;DHT22;34530;52.084;5.146;2023-03-12T05:47:04;12.10;60.40
48734;DHT22;34530;52.084;5.146;2023-03-12T05:49:30;12.10;60.50
48734;DHT22;34530;52.084;5.146;2023-03-12T05:51:56;12.10;60.40
48734;DHT22;34530;52.084;5.146;2023-03-12T05:54:22;12.10;60.40
48734;DHT22;34530;52.084;5.146;2023-03-12T05:56:48;12.10;60.50
48734;DHT22;34530;52.084;5.146;2023-03-12T05:59:13;12.20;60.40
48734;DHT22;34530;52.084;5.146;2023-03-12T06:01:39;12.20;60.40
48734;DHT22;34530;52.084;5.146;2023-03-12T06:04:05;12.10;60.40
48734;DHT22;34530;52.084;5.146;2023-03-12T06:06:32;12.10;60.50
48734;DHT22;34530;52.084;5.146;2023-03-12T06:08:58;12.10;60.50
48734;DHT22;34530;52.084;5.146;2023-03-12T06:11:24;12.10;60.50
48734;DHT22;34530;52.084;5.146;2023-03-12T06:13:49;12.10;60.50
48734;DHT22;34530;52.084;5.146;2023-03-12T06:16:20;12.10;60.60
48734;DHT22;34530;52.084;5.146;2023-03-12T06:18:47;12.10;60.60
48734;DHT22;34530;52.084;5.146;2023-03-12T06:21:18;12.10;60.60
48734;DHT22;34530;52.084;5.146;2023-03-12T06:23:44;12.10;60.70
48734;DHT22;34530;52.084;5.146;2023-03-12T06:26:10;12.00;60.60
48734;DHT22;34530;52.084;5.146;2023-03-12T06:28:37;12.10;61.40
48734;DHT22;34530;52.084;5.146;2023-03-12T06:31:03;12.00;60.60
48734;DHT22;34530;52.084;5.146;2023-03-12T06:33:29;12.00;60.70
48734;DHT22;34530;52.084;5.146;2023-03-12T06:35:56;12.10;60.70
48734;DHT22;34530;52.084;5.146;2023-03-12T06:38:23;12.00;60.70
48734;DHT22;34530;52.084;5.146;2023-03-12T06:40:55;12.00;60.70
48734;DHT22;34530;52.084;5.146;2023-03-12T06:43:21;12.00;60.70
48734;DHT22;34530;52.084;5.146;2023-03-12T06:45:47;12.00;60.70
48734;DHT22;34530;52.084;5.146;2023-03-12T06:48:12;12.00;60.70
48734;DHT22;34530;52.084;5.146;2023-03-12T06:50:38;12.00;60.80
48734;DHT22;34530;52.084;5.146;2023-03-12T06:53:04;12.00;60.80
48734;DHT22;34530;52.084;5.146;2023-03-12T06:55:29;12.00;60.80
48734;DHT22;34530;52.084;5.146;2023-03-12T06:57:55;12.00;60.80
48734;DHT22;34530;52.084;5.146;2023-03-12T07:00:20;12.40;60.10
48734;DHT22;34530;52.084;5.146;2023-03-12T07:02:46;12.20;60.30
48734;DHT22;34530;52.084;5.146;2023-03-12T07:05:12;12.10;60.40
48734;DHT22;34530;52.084;5.146;2023-03-12T07:07:37;12.10;60.60
48734;DHT22;34530;52.084;5.146;2023-03-12T07:10:04;12.40;60.00
48734;DHT22;34530;52.084;5.146;2023-03-12T07:12:31;12.30;60.20
48734;DHT22;34530;52.084;5.146;2023-03-12T07:14:57;12.20;60.40
48734;DHT22;34530;52.084;5.146;2023-03-12T07:17:23;12.10;60.40
48734;DHT22;34530;52.084;5.146;2023-03-12T07:19:50;12.10;60.50
48734;DHT22;34530;52.084;5.146;2023-03-12T07:22:16;12.10;60.60
48734;DHT22;34530;52.084;5.146;2023-03-12T07:24:41;12.10;60.70
48734;DHT22;34530;52.084;5.146;2023-03-12T07:27:07;12.00;60.70
48734;DHT22;34530;52.084;5.146;2023-03-12T07:29:33;12.00;60.70
48734;DHT22;34530;52.084;5.146;2023-03-12T07:31:58;12.00;60.80
48734;DHT22;34530;52.084;5.146;2023-03-12T07:34:24;12.00;60.80
48734;DHT22;34530;52.084;5.146;2023-03-12T07:36:49;12.00;60.90
48734;DHT22;34530;52.084;5.146;2023-03-12T07:39:15;12.00;60.90
48734;DHT22;34530;52.084;5.146;2023-03-12T07:41:41;12.00;61.00
48734;DHT22;34530;52.084;5.146;2023-03-12T07:44:06;11.90;61.00
48734;DHT22;34530;52.084;5.146;2023-03-12T07:46:32;11.90;61.10
48734;DHT22;34530;52.084;5.146;2023-03-12T07:48:58;11.90;61.10
48734;DHT22;34530;52.084;5.146;2023-03-12T07:51:23;11.90;61.10
48734;DHT22;34530;52.084;5.146;2023-03-12T07:53:49;11.90;61.10
48734;DHT22;34530;52.084;5.146;2023-03-12T07:56:15;11.90;61.20
48734;DHT22;34530;52.084;5.146;2023-03-12T07:58:40;11.90;61.20
48734;DHT22;34530;52.084;5.146;2023-03-12T08:01:06;11.90;61.30
48734;DHT22;34530;52.084;5.146;2023-03-12T08:03:32;11.90;61.30
48734;DHT22;34530;52.084;5.146;2023-03-12T08:06:00;11.90;61.30
48734;DHT22;34530;52.084;5.146;2023-03-12T08:08:27;11.90;61.30
48734;DHT22;34530;52.084;5.146;2023-03-12T08:10:53;11.90;61.40
48734;DHT22;34530;52.084;5.146;2023-03-12T08:13:19;11.90;61.40
48734;DHT22;34530;52.084;5.146;2023-03-12T08:15:45;11.90;61.40
48734;DHT22;34530;52.084;5.146;2023-03-12T08:18:11;11.90;61.50
48734;DHT22;34530;52.084;5.146;2023-03-12T08:20:36;11.90;61.50
48734;DHT22;34530;52.084;5.146;2023-03-12T08:23:02;11.90;61.50
48734;DHT22;34530;52.084;5.146;2023-03-12T08:25:27;11.90;61.50
48734;DHT22;34530;52.084;5.146;2023-03-12T08:27:53;11.90;61.60
48734;DHT22;34530;52.084;5.146;2023-03-12T08:30:19;11.90;61.60
48734;DHT22;34530;52.084;5.146;2023-03-12T08:32:45;11.90;61.60
48734;DHT22;34530;52.084;5.146;2023-03-12T08:35:10;11.90;61.60
48734;DHT22;34530;52.084;5.146;2023-03-12T08:37:36;11.90;61.70
48734;DHT22;34530;52.084;5.146;2023-03-12T08:40:03;11.90;61.70
48734;DHT22;34530;52.084;5.146;2023-03-12T08:42:38;11.90;61.70
48734;DHT22;34530;52.084;5.146;2023-03-12T08:45:04;11.80;61.70
48734;DHT22;34530;52.084;5.146;2023-03-12T08:47:30;11.90;61.80
48734;DHT22;34530;52.084;5.146;2023-03-12T08:49:55;11.90;61.80
48734;DHT22;34530;52.084;5.146;2023-03-12T08:52:21;11.90;61.90
48734;DHT22;34530;52.084;5.146;2023-03-12T08:54:46;11.90;61.90
48734;DHT22;34530;52.084;5.146;2023-03-12T08:57:12;11.80;61.80
48734;DHT22;34530;52.084;5.146;2023-03-12T08:59:38;11.80;61.80
48734;DHT22;34530;52.084;5.146;2023-03-12T09:02:03;11.80;61.90
48734;DHT22;34530;52.084;5.146;2023-03-12T09:04:29;11.90;62.00
48734;DHT22;34530;52.084;5.146;2023-03-12T09:06:55;11.90;62.00
48734;DHT22;34530;52.084;5.146;2023-03-12T09:09:20;12.00;61.80
48734;DHT22;34530;52.084;5.146;2023-03-12T09:11:46;12.00;61.90
48734;DHT22;34530;52.084;5.146;2023-03-12T09:14:12;11.90;61.90
48734;DHT22;34530;52.084;5.146;2023-03-12T09:16:37;11.90;62.00
48734;DHT22;34530;52.084;5.146;2023-03-12T09:19:03;11.90;62.10
48734;DHT22;34530;52.084;5.146;2023-03-12T09:21:29;11.90;62.10
48734;DHT22;34530;52.084;5.146;2023-03-12T09:23:54;11.90;62.10
48734;DHT22;34530;52.084;5.146;2023-03-12T09:26:20;11.90;62.10
48734;DHT22;34530;52.084;5.146;2023-03-12T09:28:46;11.90;62.20
48734;DHT22;34530;52.084;5.146;2023-03-12T09:31:12;11.90;62.20
48734;DHT22;34530;52.084;5.146;2023-03-12T09:33:37;11.90;62.20
48734;DHT22;34530;52.084;5.146;2023-03-12T09:36:03;11.90;62.30
48734;DHT22;34530;52.084;5.146;2023-03-12T09:38:29;11.90;62.30
48734;DHT22;34530;52.084;5.146;2023-03-12T09:40:57;11.90;62.40
48734;DHT22;34530;52.084;5.146;2023-03-12T09:43:46;11.90;62.40
48734;DHT22;34530;52.084;5.146;2023-03-12T09:46:30;11.90;62.40
48734;DHT22;34530;52.084;5.146;2023-03-12T09:49:01;11.80;62.40
48734;DHT22;34530;52.084;5.146;2023-03-12T09:51:37;11.90;62.60
48734;DHT22;34530;52.084;5.146;2023-03-12T09:54:20;11.80;62.50
48734;DHT22;34530;52.084;5.146;2023-03-12T09:56:50;11.80;62.60
48734;DHT22;34530;52.084;5.146;2023-03-12T09:59:16;12.00;63.40
48734;DHT22;34530;52.084;5.146;2023-03-12T10:01:52;11.90;62.60
48734;DHT22;34530;52.084;5.146;2023-03-12T10:04:44;11.90;63.40
48734;DHT22;34530;52.084;5.146;2023-03-12T10:07:12;11.90;62.70
48734;DHT22;34530;52.084;5.146;2023-03-12T10:15:21;11.90;62.90
48734;DHT22;34530;52.084;5.146;2023-03-12T10:24:01;11.90;63.00
48734;DHT22;34530;52.084;5.146;2023-03-12T10:26:12;11.80;63.00
48734;DHT22;34530;52.084;5.146;2023-03-12T10:31:22;11.80;63.20
48734;DHT22;34530;52.084;5.146;2023-03-12T10:33:55;11.80;63.20
48734;DHT22;34530;52.084;5.146;2023-03-12T10:36:41;11.80;63.30
48734;DHT22;34530;52.084;5.146;2023-03-12T10:39:15;11.80;63.30
48734;DHT22;34530;52.084;5.146;2023-03-12T10:41:43;11.90;63.50
48734;DHT22;34530;52.084;5.146;2023-03-12T10:44:19;11.80;63.50
48734;DHT22;34530;52.084;5.146;2023-03-12T10:47:02;11.80;63.60
48734;DHT22;34530;52.084;5.146;2023-03-12T10:49:32;11.80;63.60
48734;DHT22;34530;52.084;5.146;2023-03-12T10:51:59;11.80;63.70
48734;DHT22;34530;52.084;5.146;2023-03-12T10:54:37;11.90;63.80
48734;DHT22;34530;52.084;5.146;2023-03-12T10:57:06;11.80;63.80
48734;DHT22;34530;52.084;5.146;2023-03-12T10:59:38;11.80;63.90
48734;DHT22;34530;52.084;5.146;2023-03-12T11:02:34;11.90;64.00
48734;DHT22;34530;52.084;5.146;2023-03-12T11:05:01;11.80;63.90
48734;DHT22;34530;52.084;5.146;2023-03-12T11:07:33;11.80;64.10
48734;DHT22;34530;52.084;5.146;2023-03-12T11:12:31;11.80;64.20
48734;DHT22;34530;52.084;5.146;2023-03-12T11:14:57;11.80;64.20
48734;DHT22;34530;52.084;5.146;2023-03-12T11:17:26;11.80;64.30
48734;DHT22;34530;52.084;5.146;2023-03-12T11:19:52;11.80;64.30
48734;DHT22;34530;52.084;5.146;2023-03-12T11:22:47;11.80;64.40
48734;DHT22;34530;52.084;5.146;2023-03-12T11:25:39;11.80;64.40
48734;DHT22;34530;52.084;5.146;2023-03-12T11:28:05;11.80;64.50
48734;DHT22;34530;52.084;5.146;2023-03-12T11:30:39;11.80;64.90
48734;DHT22;34530;52.084;5.146;2023-03-12T11:33:05;11.80;64.70
48734;DHT22;34530;52.084;5.146;2023-03-12T11:38:20;11.80;64.80
48734;DHT22;34530;52.084;5.146;2023-03-12T11:41:26;11.80;64.80
48734;DHT22;34530;52.084;5.146;2023-03-12T11:55:18;11.80;65.10
48734;DHT22;34530;52.084;5.146;2023-03-12T11:58:00;11.80;65.20
48734;DHT22;34530;52.084;5.146;2023-03-12T12:00:41;11.80;65.30
48734;DHT22;34530;52.084;5.146;2023-03-12T12:06:24;11.80;65.40
48734;DHT22;34530;52.084;5.146;2023-03-12T12:25:28;11.90;65.90
48734;DHT22;34530;52.084;5.146;2023-03-12T12:28:22;11.90;65.90
48734;DHT22;34530;52.084;5.146;2023-03-12T12:36:09;11.90;65.90
48734;DHT22;34530;52.084;5.146;2023-03-12T12:38:48;11.90;66.00
48734;DHT22;34530;52.084;5.146;2023-03-12T12:41:18;11.90;66.10
48734;DHT22;34530;52.084;5.146;2023-03-12T12:43:50;11.90;66.20
48734;DHT22;34530;52.084;5.146;2023-03-12T12:46:31;11.90;66.20
48734;DHT22;34530;52.084;5.146;2023-03-12T12:51:43;11.90;66.30
48734;DHT22;34530;52.084;5.146;2023-03-12T12:54:15;11.90;66.30
48734;DHT22;34530;52.084;5.146;2023-03-12T12:56:52;11.90;66.30
48734;DHT22;34530;52.084;5.146;2023-03-12T12:59:33;11.90;66.30
48734;DHT22;34530;52.084;5.146;2023-03-12T13:02:00;11.90;66.40
48734;DHT22;34530;52.084;5.146;2023-03-12T13:04:37;11.90;66.40
48734;DHT22;34530;52.084;5.146;2023-03-12T13:09:54;12.00;66.40
48734;DHT22;34530;52.084;5.146;2023-03-12T13:12:57;12.00;66.50
48734;DHT22;34530;52.084;5.146;2023-03-12T13:18:17;12.00;66.60
48734;DHT22;34530;52.084;5.146;2023-03-12T13:21:10;12.00;66.60
48734;DHT22;34530;52.084;5.146;2023-03-12T13:23:49;12.00;66.60
48734;DHT22;34530;52.084;5.146;2023-03-12T13:31:56;12.00;66.70
48734;DHT22;34530;52.084;5.146;2023-03-12T13:36:56;12.00;66.80
48734;DHT22;34530;52.084;5.146;2023-03-12T13:39:31;12.00;66.90
48734;DHT22;34530;52.084;5.146;2023-03-12T13:41:59;12.00;66.90
48734;DHT22;34530;52.084;5.146;2023-03-12T13:47:28;12.00;66.90
48734;DHT22;34530;52.084;5.146;2023-03-12T13:50:04;12.00;66.90
48734;DHT22;34530;52.084;5.146;2023-03-12T13:52:31;12.00;66.90
48734;DHT22;34530;52.084;5.146;2023-03-12T13:55:01;12.00;66.90
48734;DHT22;34530;52.084;5.146;2023-03-12T14:02:52;12.10;67.10
48734;DHT22;34530;52.084;5.146;2023-03-12T14:05:19;12.10;67.00
48734;DHT22;34530;52.084;5.146;2023-03-12T14:11:02;12.10;67.10
48734;DHT22;34530;52.084;5.146;2023-03-12T14:16:58;12.10;67.10
48734;DHT22;34530;52.084;5.146;2023-03-12T14:19:31;12.10;67.10
48734;DHT22;34530;52.084;5.146;2023-03-12T14:22:01;12.10;67.20
48734;DHT22;34530;52.084;5.146;2023-03-12T14:24:38;12.10;67.20
48734;DHT22;34530;52.084;5.146;2023-03-12T14:27:09;12.20;67.30
48734;DHT22;34530;52.084;5.146;2023-03-12T14:29:50;12.10;67.20
48734;DHT22;34530;52.084;5.146;2023-03-12T14:32:19;12.20;67.30
48734;DHT22;34530;52.084;5.146;2023-03-12T14:34:52;12.20;67.30
48734;DHT22;34530;52.084;5.146;2023-03-12T14:37:23;12.20;67.30
48734;DHT22;34530;52.084;5.146;2023-03-12T14:39:52;12.20;67.40
48734;DHT22;34530;52.084;5.146;2023-03-12T14:42:40;12.20;67.30
48734;DHT22;34530;52.084;5.146;2023-03-12T14:45:16;12.20;67.30
48734;DHT22;34530;52.084;5.146;2023-03-12T14:48:02;12.20;67.30
48734;DHT22;34530;52.084;5.146;2023-03-12T14:50:34;12.20;67.30
48734;DHT22;34530;52.084;5.146;2023-03-12T14:53:12;12.20;67.30
48734;DHT22;34530;52.084;5.146;2023-03-12T14:55:41;12.20;67.30
48734;DHT22;34530;52.084;5.146;2023-03-12T14:58:18;12.20;67.30
48734;DHT22;34530;52.084;5.146;2023-03-12T15:00:58;12.20;67.30
48734;DHT22;34530;52.084;5.146;2023-03-12T15:03:24;12.20;67.30
48734;DHT22;34530;52.084;5.146;2023-03-12T15:05:52;12.20;67.30
48734;DHT22;34530;52.084;5.146;2023-03-12T15:08:19;12.30;67.40
48734;DHT22;34530;52.084;5.146;2023-03-12T15:10:58;12.30;67.40
48734;DHT22;34530;52.084;5.146;2023-03-12T15:13:25;12.30;67.40
48734;DHT22;34530;52.084;5.146;2023-03-12T15:15:53;12.30;67.40
48734;DHT22;34530;52.084;5.146;2023-03-12T15:18:27;12.30;67.40
48734;DHT22;34530;52.084;5.146;2023-03-12T15:20:55;12.30;67.40
48734;DHT22;34530;52.084;5.146;2023-03-12T15:23:23;12.30;67.40
48734;DHT22;34530;52.084;5.146;2023-03-12T15:28:54;12.30;67.40
48734;DHT22;34530;52.084;5.146;2023-03-12T15:31:20;12.30;67.40
48734;DHT22;34530;52.084;5.146;2023-03-12T15:33:59;12.30;67.40
48734;DHT22;34530;52.084;5.146;2023-03-12T15:36:27;12.30;67.40
48734;DHT22;34530;52.084;5.146;2023-03-12T15:39:31;12.30;67.30
48734;DHT22;34530;52.084;5.146;2023-03-12T15:42:06;12.30;67.30
48734;DHT22;34530;52.084;5.146;2023-03-12T15:44:50;12.30;67.30
48734;DHT22;34530;52.084;5.146;2023-03-12T15:47:18;12.30;67.30
48734;DHT22;34530;52.084;5.146;2023-03-12T15:49:55;12.30;67.40
48734;DHT22;34530;52.084;5.146;2023-03-12T15:52:23;12.30;67.40
48734;DHT22;34530;52.084;5.146;2023-03-12T15:57:25;12.40;67.40
48734;DHT22;34530;52.084;5.146;2023-03-12T16:02:34;12.40;67.40
48734;DHT22;34530;52.084;5.146;2023-03-12T16:05:01;12.40;67.40
48734;DHT22;34530;52.084;5.146;2023-03-12T16:07:26;12.40;67.40
48734;DHT22;34530;52.084;5.146;2023-03-12T16:09:52;12.40;67.40
48734;DHT22;34530;52.084;5.146;2023-03-12T16:12:17;12.40;67.50
48734;DHT22;34530;52.084;5.146;2023-03-12T16:14:43;12.40;67.40
48734;DHT22;34530;52.084;5.146;2023-03-12T16:17:12;12.40;67.40
48734;DHT22;34530;52.084;5.146;2023-03-12T16:19:41;12.40;67.40
48734;DHT22;34530;52.084;5.146;2023-03-12T16:22:06;12.40;67.40
48734;DHT22;34530;52.084;5.146;2023-03-12T16:24:32;12.40;67.40
48734;DHT22;34530;52.084;5.146;2023-03-12T16:26:58;12.40;67.30
48734;DHT22;34530;52.084;5.146;2023-03-12T16:29:33;12.40;67.40
48734;DHT22;34530;52.084;5.146;2023-03-12T16:31:59;12.40;67.40
48734;DHT22;34530;52.084;5.146;2023-03-12T16:34:26;12.40;67.40
48734;DHT22;34530;52.084;5.146;2023-03-12T16:36:52;12.40;67.30
48734;DHT22;34530;52.084;5.146;2023-03-12T16:39:17;12.50;67.40
48734;DHT22;34530;52.084;5.146;2023-03-12T16:41:43;12.50;67.40
48734;DHT22;34530;52.084;5.146;2023-03-12T16:44:14;12.50;67.40
48734;DHT22;34530;52.084;5.146;2023-03-12T16:46:40;12.50;67.40
48734;DHT22;34530;52.084;5.146;2023-03-12T16:49:13;12.50;67.40
48734;DHT22;34530;52.084;5.146;2023-03-12T16:51:39;12.50;67.40
48734;DHT22;34530;52.084;5.146;2023-03-12T16:54:04;12.80;67.00
48734;DHT22;34530;52.084;5.146;2023-03-12T16:56:30;12.70;67.00
48734;DHT22;34530;52.084;5.146;2023-03-12T16:58:56;12.60;67.10
48734;DHT22;34530;52.084;5.146;2023-03-12T17:01:24;12.60;67.20
48734;DHT22;34530;52.084;5.146;2023-03-12T17:03:51;12.60;67.20
48734;DHT22;34530;52.084;5.146;2023-03-12T17:06:22;12.60;67.20
48734;DHT22;34530;52.084;5.146;2023-03-12T17:08:48;12.60;67.30
48734;DHT22;34530;52.084;5.146;2023-03-12T17:11:16;12.60;67.30
48734;DHT22;34530;52.084;5.146;2023-03-12T17:13:44;12.60;67.30
48734;DHT22;34530;52.084;5.146;2023-03-12T17:16:11;12.60;67.40
48734;DHT22;34530;52.084;5.146;2023-03-12T17:18:38;12.60;67.40
48734;DHT22;34530;52.084;5.146;2023-03-12T17:21:04;12.60;67.50
48734;DHT22;34530;52.084;5.146;2023-03-12T17:23:29;12.60;67.40
48734;DHT22;34530;52.084;5.146;2023-03-12T17:25:55;12.60;67.40